Biggers, Arkansas
Current Conditions -  °F | °C
As of 7:15 PM on Saturday 22 Nov 2014 (Local Time) from K4M9 Reporting Station
Broken Clouds Broken Clouds  
Wind Chill: 55°   Ceiling: 8500
Heat Index: 55°   Visibility: 10mi
Dew Point: 46°   Wind: 7mph
Humidity: 72%   Direction: 160°SSE
Pressure: 30.02"   Gusts: NA
Location:  36.33°N, 90.81°W
Report Text: K4M9 230115Z AUTO 16006KT 10SM FEW060 BKN085 BKN100 13/08 A3002 RMK AO2
Loading
Personal Weather Stations






























Interactive Weather Map New forecast layout! Learn more

10-Day Weather Forecast

Advertisements
Track Severe Weather on mobile